sensor_id;sensor_type;location;lat;lon;timestamp;temperature;humidity
60242;SHT30;46103;52.076;113.488;2024-03-23T00:53:28;-7.64;35.77
60242;SHT30;46103;52.076;113.488;2024-03-23T00:56:31;-7.57;36.74
60242;SHT30;46103;52.076;113.488;2024-03-23T00:59:33;-7.32;36.22
60242;SHT30;46103;52.076;113.488;2024-03-23T01:02:36;-7.32;35.55
60242;SHT30;46103;52.076;113.488;2024-03-23T01:05:38;-7.31;34.44
60242;SHT30;46103;52.076;113.488;2024-03-23T01:08:41;-7.16;34.39
60242;SHT30;46103;52.076;113.488;2024-03-23T01:11:43;-7.12;34.53
60242;SHT30;46103;52.076;113.488;2024-03-23T01:14:46;-7.07;34.24
60242;SHT30;46103;52.076;113.488;2024-03-23T01:17:48;-6.97;33.29
60242;SHT30;46103;52.076;113.488;2024-03-23T01:20:51;-7.11;32.29
60242;SHT30;46103;52.076;113.488;2024-03-23T01:23:53;-7.09;32.67
60242;SHT30;46103;52.076;113.488;2024-03-23T01:26:56;-6.95;32.56
60242;SHT30;46103;52.076;113.488;2024-03-23T01:29:58;-6.90;32.36
60242;SHT30;46103;52.076;113.488;2024-03-23T01:33:00;-6.94;32.15
60242;SHT30;46103;52.076;113.488;2024-03-23T01:36:03;-6.97;32.37
60242;SHT30;46103;52.076;113.488;2024-03-23T01:39:06;-6.93;30.48
60242;SHT30;46103;52.076;113.488;2024-03-23T01:42:10;-6.80;31.19
60242;SHT30;46103;52.076;113.488;2024-03-23T01:45:13;-6.69;30.98
60242;SHT30;46103;52.076;113.488;2024-03-23T01:48:15;-6.73;30.73
60242;SHT30;46103;52.076;113.488;2024-03-23T01:51:18;-6.62;31.53
60242;SHT30;46103;52.076;113.488;2024-03-23T01:54:21;-6.67;30.96
60242;SHT30;46103;52.076;113.488;2024-03-23T01:57:25;-6.46;31.43
60242;SHT30;46103;52.076;113.488;2024-03-23T02:00:27;-6.22;30.92
60242;SHT30;46103;52.076;113.488;2024-03-23T02:03:30;-6.05;30.46
60242;SHT30;46103;52.076;113.488;2024-03-23T02:06:33;-5.98;30.04
60242;SHT30;46103;52.076;113.488;2024-03-23T02:09:35;-6.05;29.22
60242;SHT30;46103;52.076;113.488;2024-03-23T02:12:38;-6.07;28.69
60242;SHT30;46103;52.076;113.488;2024-03-23T02:15:41;-5.97;28.96
60242;SHT30;46103;52.076;113.488;2024-03-23T02:18:43;-5.95;28.80
60242;SHT30;46103;52.076;113.488;2024-03-23T02:21:45;-5.79;29.09
60242;SHT30;46103;52.076;113.488;2024-03-23T02:24:49;-5.66;28.69
60242;SHT30;46103;52.076;113.488;2024-03-23T02:27:51;-5.55;29.00
60242;SHT30;46103;52.076;113.488;2024-03-23T02:30:56;-5.44;28.13
60242;SHT30;46103;52.076;113.488;2024-03-23T02:33:58;-5.39;28.91
60242;SHT30;46103;52.076;113.488;2024-03-23T02:37:00;-5.22;28.72
60242;SHT30;46103;52.076;113.488;2024-03-23T02:40:03;-5.07;28.58
60242;SHT30;46103;52.076;113.488;2024-03-23T02:43:06;-5.07;28.83
60242;SHT30;46103;52.076;113.488;2024-03-23T02:46:08;-5.07;29.08
60242;SHT30;46103;52.076;113.488;2024-03-23T02:49:10;-4.87;29.08
60242;SHT30;46103;52.076;113.488;2024-03-23T02:52:13;-4.77;29.01
60242;SHT30;46103;52.076;113.488;2024-03-23T02:55:16;-4.67;28.92
60242;SHT30;46103;52.076;113.488;2024-03-23T02:58:19;-4.83;27.73
60242;SHT30;46103;52.076;113.488;2024-03-23T03:01:21;-4.98;28.06
60242;SHT30;46103;52.076;113.488;2024-03-23T03:04:24;-4.76;28.39
60242;SHT30;46103;52.076;113.488;2024-03-23T03:07:26;-4.73;28.20
60242;SHT30;46103;52.076;113.488;2024-03-23T03:10:29;-4.65;28.61
60242;SHT30;46103;52.076;113.488;2024-03-23T03:13:32;-4.49;28.79
60242;SHT30;46103;52.076;113.488;2024-03-23T03:16:35;-4.66;28.25
60242;SHT30;46103;52.076;113.488;2024-03-23T03:19:37;-4.39;28.93
60242;SHT30;46103;52.076;113.488;2024-03-23T03:22:40;-4.30;28.93
60242;SHT30;46103;52.076;113.488;2024-03-23T03:25:46;-4.38;28.54
60242;SHT30;46103;52.076;113.488;2024-03-23T03:29:00;-4.25;28.66
60242;SHT30;46103;52.076;113.488;2024-03-23T03:32:03;-4.02;28.71
60242;SHT30;46103;52.076;113.488;2024-03-23T03:35:06;-4.17;28.10
60242;SHT30;46103;52.076;113.488;2024-03-23T03:38:08;-4.08;28.60
60242;SHT30;46103;52.076;113.488;2024-03-23T03:41:11;-3.87;28.56
60242;SHT30;46103;52.076;113.488;2024-03-23T03:44:13;-3.97;27.32
60242;SHT30;46103;52.076;113.488;2024-03-23T03:47:16;-3.88;27.24
60242;SHT30;46103;52.076;113.488;2024-03-23T03:50:19;-4.01;27.66
60242;SHT30;46103;52.076;113.488;2024-03-23T03:53:22;-4.00;27.95
60242;SHT30;46103;52.076;113.488;2024-03-23T03:56:24;-3.87;27.83
60242;SHT30;46103;52.076;113.488;2024-03-23T03:59:27;-3.76;27.24
60242;SHT30;46103;52.076;113.488;2024-03-23T04:02:29;-3.79;26.72
60242;SHT30;46103;52.076;113.488;2024-03-23T04:05:32;-3.74;26.88
60242;SHT30;46103;52.076;113.488;2024-03-23T04:08:34;-3.70;26.93
60242;SHT30;46103;52.076;113.488;2024-03-23T04:11:39;-3.56;26.96
60242;SHT30;46103;52.076;113.488;2024-03-23T04:14:41;-3.34;27.43
60242;SHT30;46103;52.076;113.488;2024-03-23T04:17:44;-3.24;27.06
60242;SHT30;46103;52.076;113.488;2024-03-23T04:20:46;-3.22;26.84
60242;SHT30;46103;52.076;113.488;2024-03-23T04:23:49;-3.25;27.26
60242;SHT30;46103;52.076;113.488;2024-03-23T04:26:51;-3.35;26.79
60242;SHT30;46103;52.076;113.488;2024-03-23T04:29:53;-3.38;27.46
60242;SHT30;46103;52.076;113.488;2024-03-23T04:32:56;-3.15;26.85
60242;SHT30;46103;52.076;113.488;2024-03-23T04:36:01;-3.27;27.00
60242;SHT30;46103;52.076;113.488;2024-03-23T04:39:04;-3.42;26.86
60242;SHT30;46103;52.076;113.488;2024-03-23T04:42:07;-3.30;27.10
60242;SHT30;46103;52.076;113.488;2024-03-23T04:45:09;-3.30;26.47
60242;SHT30;46103;52.076;113.488;2024-03-23T04:48:13;-3.25;26.85
60242;SHT30;46103;52.076;113.488;2024-03-23T04:51:22;-2.86;26.99
60242;SHT30;46103;52.076;113.488;2024-03-23T04:54:25;-2.95;26.25
60242;SHT30;46103;52.076;113.488;2024-03-23T04:57:27;-2.94;26.67
60242;SHT30;46103;52.076;113.488;2024-03-23T05:00:30;-2.66;26.40
60242;SHT30;46103;52.076;113.488;2024-03-23T05:03:32;-2.48;26.30
60242;SHT30;46103;52.076;113.488;2024-03-23T05:06:34;-2.05;26.07
60242;SHT30;46103;52.076;113.488;2024-03-23T05:09:37;-2.12;26.04
60242;SHT30;46103;52.076;113.488;2024-03-23T05:12:40;-1.94;26.33
60242;SHT30;46103;52.076;113.488;2024-03-23T05:15:42;-1.89;26.35
60242;SHT30;46103;52.076;113.488;2024-03-23T05:18:45;-2.01;25.90
60242;SHT30;46103;52.076;113.488;2024-03-23T05:21:47;-1.98;26.34
60242;SHT30;46103;52.076;113.488;2024-03-23T05:24:50;-2.21;26.82
60242;SHT30;46103;52.076;113.488;2024-03-23T05:27:52;-2.24;27.07
60242;SHT30;46103;52.076;113.488;2024-03-23T05:30:55;-2.01;27.25
60242;SHT30;46103;52.076;113.488;2024-03-23T05:33:58;-2.12;27.09
60242;SHT30;46103;52.076;113.488;2024-03-23T05:37:01;-1.90;27.76
60242;SHT30;46103;52.076;113.488;2024-03-23T05:40:03;-1.32;27.79
60242;SHT30;46103;52.076;113.488;2024-03-23T05:43:06;-1.49;28.19
60242;SHT30;46103;52.076;113.488;2024-03-23T05:46:08;-1.53;28.24
60242;SHT30;46103;52.076;113.488;2024-03-23T05:49:11;-1.30;28.76
60242;SHT30;46103;52.076;113.488;2024-03-23T05:52:14;-1.42;28.90
60242;SHT30;46103;52.076;113.488;2024-03-23T05:55:16;-1.83;29.78
60242;SHT30;46103;52.076;113.488;2024-03-23T05:58:19;-1.66;29.51
60242;SHT30;46103;52.076;113.488;2024-03-23T06:01:22;-1.38;28.89
60242;SHT30;46103;52.076;113.488;2024-03-23T06:04:24;-1.16;28.92
60242;SHT30;46103;52.076;113.488;2024-03-23T06:07:27;-1.21;28.85
60242;SHT30;46103;52.076;113.488;2024-03-23T06:10:29;-1.12;29.03
60242;SHT30;46103;52.076;113.488;2024-03-23T06:13:32;-1.08;28.74
60242;SHT30;46103;52.076;113.488;2024-03-23T06:16:35;-1.34;28.89
60242;SHT30;46103;52.076;113.488;2024-03-23T06:19:38;-1.05;29.30
60242;SHT30;46103;52.076;113.488;2024-03-23T06:22:40;-0.69;29.17
60242;SHT30;46103;52.076;113.488;2024-03-23T06:25:43;-0.33;28.92
60242;SHT30;46103;52.076;113.488;2024-03-23T06:28:45;-0.28;28.66
60242;SHT30;46103;52.076;113.488;2024-03-23T06:31:54;-0.67;29.83
60242;SHT30;46103;52.076;113.488;2024-03-23T06:34:57;-0.74;30.65
60242;SHT30;46103;52.076;113.488;2024-03-23T06:37:59;-0.87;31.33
60242;SHT30;46103;52.076;113.488;2024-03-23T06:41:05;-1.22;31.75
60242;SHT30;46103;52.076;113.488;2024-03-23T06:44:07;-1.03;32.10
60242;SHT30;46103;52.076;113.488;2024-03-23T06:47:10;-0.63;31.44
60242;SHT30;46103;52.076;113.488;2024-03-23T06:50:13;-0.70;30.90
60242;SHT30;46103;52.076;113.488;2024-03-23T06:53:16;-0.90;31.83
60242;SHT30;46103;52.076;113.488;2024-03-23T06:56:18;-0.67;32.35
60242;SHT30;46103;52.076;113.488;2024-03-23T06:59:20;-0.19;32.26
60242;SHT30;46103;52.076;113.488;2024-03-23T07:02:23;0.19;31.69
60242;SHT30;46103;52.076;113.488;2024-03-23T07:05:25;0.38;31.72
60242;SHT30;46103;52.076;113.488;2024-03-23T07:08:27;0.68;31.47
60242;SHT30;46103;52.076;113.488;2024-03-23T07:11:30;0.85;31.40
60242;SHT30;46103;52.076;113.488;2024-03-23T07:14:32;0.99;31.59
60242;SHT30;46103;52.076;113.488;2024-03-23T07:17:35;1.33;30.98
60242;SHT30;46103;52.076;113.488;2024-03-23T07:20:38;1.50;29.59
60242;SHT30;46103;52.076;113.488;2024-03-23T07:23:42;0.99;30.85
60242;SHT30;46103;52.076;113.488;2024-03-23T07:26:48;0.89;31.71
60242;SHT30;46103;52.076;113.488;2024-03-23T07:29:50;1.06;30.93
60242;SHT30;46103;52.076;113.488;2024-03-23T07:32:53;0.85;30.69
60242;SHT30;46103;52.076;113.488;2024-03-23T07:35:55;0.68;31.60
60242;SHT30;46103;52.076;113.488;2024-03-23T07:38:58;1.23;31.40
60242;SHT30;46103;52.076;113.488;2024-03-23T07:42:00;1.43;30.77
60242;SHT30;46103;52.076;113.488;2024-03-23T07:45:03;0.92;31.37
60242;SHT30;46103;52.076;113.488;2024-03-23T07:48:06;0.44;32.41
60242;SHT30;46103;52.076;113.488;2024-03-23T07:51:10;0.14;33.06
60242;SHT30;46103;52.076;113.488;2024-03-23T07:54:13;0.33;33.10
60242;SHT30;46103;52.076;113.488;2024-03-23T07:57:15;0.68;32.93
60242;SHT30;46103;52.076;113.488;2024-03-23T08:00:17;0.46;32.82
60242;SHT30;46103;52.076;113.488;2024-03-23T08:03:20;0.44;32.88
60242;SHT30;46103;52.076;113.488;2024-03-23T08:06:22;0.51;33.11
60242;SHT30;46103;52.076;113.488;2024-03-23T08:09:26;0.50;33.49
60242;SHT30;46103;52.076;113.488;2024-03-23T08:12:28;0.43;33.41
60242;SHT30;46103;52.076;113.488;2024-03-23T08:15:31;0.03;34.27
60242;SHT30;46103;52.076;113.488;2024-03-23T08:18:36;-0.02;35.15
60242;SHT30;46103;52.076;113.488;2024-03-23T08:21:38;0.14;34.70
60242;SHT30;46103;52.076;113.488;2024-03-23T08:24:41;0.34;34.70
60242;SHT30;46103;52.076;113.488;2024-03-23T08:27:46;0.37;33.77
60242;SHT30;46103;52.076;113.488;2024-03-23T08:30:49;0.27;33.53
60242;SHT30;46103;52.076;113.488;2024-03-23T08:33:53;0.84;33.25
60242;SHT30;46103;52.076;113.488;2024-03-23T08:36:55;0.43;33.00
60242;SHT30;46103;52.076;113.488;2024-03-23T08:39:59;0.13;33.02
60242;SHT30;46103;52.076;113.488;2024-03-23T08:43:01;0.41;32.69
60242;SHT30;46103;52.076;113.488;2024-03-23T08:46:08;1.46;31.62
60242;SHT30;46103;52.076;113.488;2024-03-23T08:49:13;2.36;30.16
60242;SHT30;46103;52.076;113.488;2024-03-23T08:52:16;1.65;31.24
60242;SHT30;46103;52.076;113.488;2024-03-23T08:55:18;2.47;30.65
60242;SHT30;46103;52.076;113.488;2024-03-23T08:58:21;3.08;30.03
60242;SHT30;46103;52.076;113.488;2024-03-23T09:01:23;3.56;29.81
60242;SHT30;46103;52.076;113.488;2024-03-23T09:04:25;4.12;28.97
60242;SHT30;46103;52.076;113.488;2024-03-23T09:07:28;4.92;28.07
60242;SHT30;46103;52.076;113.488;2024-03-23T09:10:31;4.67;27.76
60242;SHT30;46103;52.076;113.488;2024-03-23T09:13:34;4.13;28.47
60242;SHT30;46103;52.076;113.488;2024-03-23T09:16:39;3.87;28.42
60242;SHT30;46103;52.076;113.488;2024-03-23T09:19:41;3.74;28.47
60242;SHT30;46103;52.076;113.488;2024-03-23T09:22:44;3.36;28.21
60242;SHT30;46103;52.076;113.488;2024-03-23T09:25:46;3.20;28.74
60242;SHT30;46103;52.076;113.488;2024-03-23T09:28:49;3.18;28.74
60242;SHT30;46103;52.076;113.488;2024-03-23T09:31:51;2.47;29.67
60242;SHT30;46103;52.076;113.488;2024-03-23T09:34:54;2.12;29.99
60242;SHT30;46103;52.076;113.488;2024-03-23T09:37:57;1.44;30.89
60242;SHT30;46103;52.076;113.488;2024-03-23T09:41:00;1.94;30.44
60242;SHT30;46103;52.076;113.488;2024-03-23T09:44:03;1.86;30.70
60242;SHT30;46103;52.076;113.488;2024-03-23T09:47:07;1.88;30.73
60242;SHT30;46103;52.076;113.488;2024-03-23T09:50:10;1.89;30.68
60242;SHT30;46103;52.076;113.488;2024-03-23T09:53:13;2.13;30.60
60242;SHT30;46103;52.076;113.488;2024-03-23T09:56:16;2.65;30.14
60242;SHT30;46103;52.076;113.488;2024-03-23T09:59:19;2.85;29.81
60242;SHT30;46103;52.076;113.488;2024-03-23T10:02:22;2.70;29.90
60242;SHT30;46103;52.076;113.488;2024-03-23T10:05:25;2.36;30.39
60242;SHT30;46103;52.076;113.488;2024-03-23T10:08:29;1.82;31.07
60242;SHT30;46103;52.076;113.488;2024-03-23T10:11:33;1.29;31.90
60242;SHT30;46103;52.076;113.488;2024-03-23T10:14:35;1.02;32.59
60242;SHT30;46103;52.076;113.488;2024-03-23T10:17:40;0.75;32.87
60242;SHT30;46103;52.076;113.488;2024-03-23T10:20:43;0.53;33.34
60242;SHT30;46103;52.076;113.488;2024-03-23T10:23:46;0.23;33.73
60242;SHT30;46103;52.076;113.488;2024-03-23T10:26:56;-0.01;34.08
60242;SHT30;46103;52.076;113.488;2024-03-23T10:30:11;-0.15;34.45
60242;SHT30;46103;52.076;113.488;2024-03-23T10:33:13;-0.32;34.65
60242;SHT30;46103;52.076;113.488;2024-03-23T10:36:18;-0.45;35.19
60242;SHT30;46103;52.076;113.488;2024-03-23T10:39:22;-0.49;35.18
60242;SHT30;46103;52.076;113.488;2024-03-23T10:42:25;-0.57;35.45
60242;SHT30;46103;52.076;113.488;2024-03-23T10:45:28;-0.63;35.46
60242;SHT30;46103;52.076;113.488;2024-03-23T10:48:32;-0.66;35.58
60242;SHT30;46103;52.076;113.488;2024-03-23T10:51:34;-0.63;35.65
60242;SHT30;46103;52.076;113.488;2024-03-23T10:54:37;-0.63;35.70
60242;SHT30;46103;52.076;113.488;2024-03-23T10:57:48;-0.67;35.70
60242;SHT30;46103;52.076;113.488;2024-03-23T11:00:52;-0.72;35.76
60242;SHT30;46103;52.076;113.488;2024-03-23T11:03:56;-0.69;35.82
60242;SHT30;46103;52.076;113.488;2024-03-23T11:06:58;-0.70;35.97
60242;SHT30;46103;52.076;113.488;2024-03-23T11:10:01;-0.69;35.81
60242;SHT30;46103;52.076;113.488;2024-03-23T11:13:37;-0.65;35.89
60242;SHT30;46103;52.076;113.488;2024-03-23T11:16:39;-0.72;36.46
60242;SHT30;46103;52.076;113.488;2024-03-23T11:19:41;-0.81;36.66
60242;SHT30;46103;52.076;113.488;2024-03-23T11:22:45;-0.79;36.57
60242;SHT30;46103;52.076;113.488;2024-03-23T11:25:50;-0.81;36.50
60242;SHT30;46103;52.076;113.488;2024-03-23T11:29:09;-0.81;36.59
60242;SHT30;46103;52.076;113.488;2024-03-23T11:32:11;-0.70;36.84
60242;SHT30;46103;52.076;113.488;2024-03-23T11:35:34;-0.63;36.61
60242;SHT30;46103;52.076;113.488;2024-03-23T11:38:37;-0.56;36.53
60242;SHT30;46103;52.076;113.488;2024-03-23T11:41:47;-0.49;36.32
60242;SHT30;46103;52.076;113.488;2024-03-23T11:44:49;-0.52;36.41
60242;SHT30;46103;52.076;113.488;2024-03-23T11:51:08;-0.42;36.05
60242;SHT30;46103;52.076;113.488;2024-03-23T11:54:10;-0.45;35.99
60242;SHT30;46103;52.076;113.488;2024-03-23T11:57:20;-0.50;36.27
60242;SHT30;46103;52.076;113.488;2024-03-23T12:00:23;-0.62;36.40
60242;SHT30;46103;52.076;113.488;2024-03-23T12:03:26;-0.62;36.64
60242;SHT30;46103;52.076;113.488;2024-03-23T12:06:29;-0.77;37.22
60242;SHT30;46103;52.076;113.488;2024-03-23T12:09:31;-0.88;37.19
60242;SHT30;46103;52.076;113.488;2024-03-23T12:12:34;-0.90;37.19
60242;SHT30;46103;52.076;113.488;2024-03-23T12:15:36;-1.01;37.73
60242;SHT30;46103;52.076;113.488;2024-03-23T12:18:43;-1.03;37.75
60242;SHT30;46103;52.076;113.488;2024-03-23T12:21:46;-1.16;38.34
60242;SHT30;46103;52.076;113.488;2024-03-23T12:24:49;-1.30;38.60
60242;SHT30;46103;52.076;113.488;2024-03-23T12:27:51;-1.41;38.75
60242;SHT30;46103;52.076;113.488;2024-03-23T12:30:54;-1.59;39.16
60242;SHT30;46103;52.076;113.488;2024-03-23T12:33:56;-1.71;39.45
60242;SHT30;46103;52.076;113.488;2024-03-23T12:36:59;-1.81;39.85
60242;SHT30;46103;52.076;113.488;2024-03-23T12:40:01;-1.89;40.41
60242;SHT30;46103;52.076;113.488;2024-03-23T12:43:04;-1.93;40.73
60242;SHT30;46103;52.076;113.488;2024-03-23T12:46:06;-1.80;40.30
60242;SHT30;46103;52.076;113.488;2024-03-23T12:49:13;-1.79;40.03
60242;SHT30;46103;52.076;113.488;2024-03-23T12:52:16;-2.11;40.86
60242;SHT30;46103;52.076;113.488;2024-03-23T12:55:19;-2.09;40.80
60242;SHT30;46103;52.076;113.488;2024-03-23T12:58:23;-2.19;41.04
60242;SHT30;46103;52.076;113.488;2024-03-23T13:01:26;-2.28;41.43
60242;SHT30;46103;52.076;113.488;2024-03-23T13:04:28;-2.45;42.13
60242;SHT30;46103;52.076;113.488;2024-03-23T13:07:31;-2.55;42.34
60242;SHT30;46103;52.076;113.488;2024-03-23T13:10:33;-2.55;42.38
60242;SHT30;46103;52.076;113.488;2024-03-23T13:13:36;-2.62;42.37
60242;SHT30;46103;52.076;113.488;2024-03-23T13:16:39;-2.63;42.45
60242;SHT30;46103;52.076;113.488;2024-03-23T13:19:41;-2.70;42.66
60242;SHT30;46103;52.076;113.488;2024-03-23T13:22:44;-2.81;42.66
60242;SHT30;46103;52.076;113.488;2024-03-23T13:25:51;-2.94;43.31
60242;SHT30;46103;52.076;113.488;2024-03-23T13:28:54;-3.14;44.14
60242;SHT30;46103;52.076;113.488;2024-03-23T13:31:57;-3.30;44.41
60242;SHT30;46103;52.076;113.488;2024-03-23T13:34:59;-3.41;44.68
60242;SHT30;46103;52.076;113.488;2024-03-23T13:38:02;-3.50;45.11
60242;SHT30;46103;52.076;113.488;2024-03-23T13:41:04;-3.58;45.44
60242;SHT30;46103;52.076;113.488;2024-03-23T13:44:10;-3.67;45.73
60242;SHT30;46103;52.076;113.488;2024-03-23T13:47:12;-3.83;46.05
60242;SHT30;46103;52.076;113.488;2024-03-23T13:50:15;-3.91;46.34
60242;SHT30;46103;52.076;113.488;2024-03-23T13:53:18;-3.97;46.67
60242;SHT30;46103;52.076;113.488;2024-03-23T13:56:20;-4.01;47.23
60242;SHT30;46103;52.076;113.488;2024-03-23T13:59:23;-3.98;47.63
60242;SHT30;46103;52.076;113.488;2024-03-23T14:02:26;-3.98;48.48
60242;SHT30;46103;52.076;113.488;2024-03-23T14:05:28;-3.98;48.88
60242;SHT30;46103;52.076;113.488;2024-03-23T14:08:31;-3.97;48.98
60242;SHT30;46103;52.076;113.488;2024-03-23T14:11:35;-3.93;49.00
60242;SHT30;46103;52.076;113.488;2024-03-23T14:14:42;-3.90;48.91
60242;SHT30;46103;52.076;113.488;2024-03-23T14:17:45;-3.90;48.95
60242;SHT30;46103;52.076;113.488;2024-03-23T14:20:48;-3.94;48.62
60242;SHT30;46103;52.076;113.488;2024-03-23T14:23:50;-3.97;48.60
60242;SHT30;46103;52.076;113.488;2024-03-23T14:26:53;-4.04;48.75
60242;SHT30;46103;52.076;113.488;2024-03-23T14:29:55;-4.09;48.68
60242;SHT30;46103;52.076;113.488;2024-03-23T14:32:58;-4.11;48.99
60242;SHT30;46103;52.076;113.488;2024-03-23T14:36:01;-4.12;49.27
60242;SHT30;46103;52.076;113.488;2024-03-23T14:39:03;-4.17;49.39
60242;SHT30;46103;52.076;113.488;2024-03-23T14:42:06;-4.25;49.68
60242;SHT30;46103;52.076;113.488;2024-03-23T14:45:10;-4.29;49.81
60242;SHT30;46103;52.076;113.488;2024-03-23T14:48:13;-4.49;49.81
60242;SHT30;46103;52.076;113.488;2024-03-23T14:51:16;-4.48;50.93
60242;SHT30;46103;52.076;113.488;2024-03-23T14:54:18;-4.46;50.90
60242;SHT30;46103;52.076;113.488;2024-03-23T14:57:20;-4.46;50.45
60242;SHT30;46103;52.076;113.488;2024-03-23T15:00:22;-4.53;50.35
60242;SHT30;46103;52.076;113.488;2024-03-23T15:03:25;-4.60;50.38
60242;SHT30;46103;52.076;113.488;2024-03-23T15:06:27;-4.73;50.95
60242;SHT30;46103;52.076;113.488;2024-03-23T15:09:30;-4.74;51.24
60242;SHT30;46103;52.076;113.488;2024-03-23T15:12:34;-4.72;51.34
60242;SHT30;46103;52.076;113.488;2024-03-23T15:15:40;-4.67;51.45
60242;SHT30;46103;52.076;113.488;2024-03-23T15:18:47;-4.66;51.51
60242;SHT30;46103;52.076;113.488;2024-03-23T15:21:51;-4.65;51.43
60242;SHT30;46103;52.076;113.488;2024-03-23T15:24:53;-4.70;51.24
60242;SHT30;46103;52.076;113.488;2024-03-23T15:27:54;-4.70;51.36
60242;SHT30;46103;52.076;113.488;2024-03-23T15:30:58;-4.87;50.54
60242;SHT30;46103;52.076;113.488;2024-03-23T15:34:00;-4.98;51.18
60242;SHT30;46103;52.076;113.488;2024-03-23T15:37:02;-5.03;51.44
60242;SHT30;46103;52.076;113.488;2024-03-23T15:40:06;-5.08;51.55
60242;SHT30;46103;52.076;113.488;2024-03-23T15:43:09;-5.18;51.74
60242;SHT30;46103;52.076;113.488;2024-03-23T15:46:11;-5.26;51.72
60242;SHT30;46103;52.076;113.488;2024-03-23T15:49:17;-5.35;51.74
60242;SHT30;46103;52.076;113.488;2024-03-23T15:52:18;-5.46;51.91
60242;SHT30;46103;52.076;113.488;2024-03-23T15:55:21;-5.53;51.93
60242;SHT30;46103;52.076;113.488;2024-03-23T15:58:24;-5.66;52.58
60242;SHT30;46103;52.076;113.488;2024-03-23T16:01:27;-5.76;53.28
60242;SHT30;46103;52.076;113.488;2024-03-23T16:04:29;-5.91;53.59
60242;SHT30;46103;52.076;113.488;2024-03-23T16:07:32;-5.93;54.00
60242;SHT30;46103;52.076;113.488;2024-03-23T16:10:33;-5.98;54.16
60242;SHT30;46103;52.076;113.488;2024-03-23T16:13:37;-5.94;54.41
60242;SHT30;46103;52.076;113.488;2024-03-23T16:16:38;-6.01;54.37
60242;SHT30;46103;52.076;113.488;2024-03-23T16:19:40;-6.07;54.44
60242;SHT30;46103;52.076;113.488;2024-03-23T16:22:43;-6.05;54.50
60242;SHT30;46103;52.076;113.488;2024-03-23T16:25:49;-6.09;54.50
60242;SHT30;46103;52.076;113.488;2024-03-23T16:28:57;-6.15;53.88
60242;SHT30;46103;52.076;113.488;2024-03-23T16:32:00;-6.17;54.11
60242;SHT30;46103;52.076;113.488;2024-03-23T16:35:04;-6.21;54.30
60242;SHT30;46103;52.076;113.488;2024-03-23T16:38:06;-6.29;54.69
60242;SHT30;46103;52.076;113.488;2024-03-23T16:41:11;-6.32;54.71
60242;SHT30;46103;52.076;113.488;2024-03-23T16:44:20;-6.40;54.94
60242;SHT30;46103;52.076;113.488;2024-03-23T16:47:23;-6.39;54.94
60242;SHT30;46103;52.076;113.488;2024-03-23T16:50:25;-6.36;54.87
60242;SHT30;46103;52.076;113.488;2024-03-23T16:53:28;-6.40;54.86
60242;SHT30;46103;52.076;113.488;2024-03-23T16:56:32;-6.45;54.78
60242;SHT30;46103;52.076;113.488;2024-03-23T16:59:34;-6.46;54.86
60242;SHT30;46103;52.076;113.488;2024-03-23T17:02:36;-6.54;55.66
60242;SHT30;46103;52.076;113.488;2024-03-23T17:05:41;-6.59;55.65
60242;SHT30;46103;52.076;113.488;2024-03-23T17:08:45;-6.62;56.05
60242;SHT30;46103;52.076;113.488;2024-03-23T17:11:51;-6.54;55.71
60242;SHT30;46103;52.076;113.488;2024-03-23T17:14:54;-6.49;55.44
60242;SHT30;46103;52.076;113.488;2024-03-23T17:17:56;-6.50;55.28
60242;SHT30;46103;52.076;113.488;2024-03-23T17:20:59;-6.53;55.22
60242;SHT30;46103;52.076;113.488;2024-03-23T17:24:01;-6.59;55.34
60242;SHT30;46103;52.076;113.488;2024-03-23T17:27:04;-6.62;55.05
60242;SHT30;46103;52.076;113.488;2024-03-23T17:30:06;-6.72;55.30
60242;SHT30;46103;52.076;113.488;2024-03-23T17:33:08;-6.69;55.29
60242;SHT30;46103;52.076;113.488;2024-03-23T17:36:11;-6.76;55.18
60242;SHT30;46103;52.076;113.488;2024-03-23T17:39:13;-6.84;55.21
60242;SHT30;46103;52.076;113.488;2024-03-23T17:42:16;-6.85;55.19
60242;SHT30;46103;52.076;113.488;2024-03-23T17:45:18;-6.90;55.29
60242;SHT30;46103;52.076;113.488;2024-03-23T17:48:21;-6.93;55.13
60242;SHT30;46103;52.076;113.488;2024-03-23T17:51:23;-6.95;54.61
60242;SHT30;46103;52.076;113.488;2024-03-23T17:54:26;-6.98;53.92
60242;SHT30;46103;52.076;113.488;2024-03-23T17:57:29;-7.03;54.47
60242;SHT30;46103;52.076;113.488;2024-03-23T18:00:31;-7.03;55.16
60242;SHT30;46103;52.076;113.488;2024-03-23T18:03:33;-7.07;55.33
60242;SHT30;46103;52.076;113.488;2024-03-23T18:06:36;-7.16;55.95
60242;SHT30;46103;52.076;113.488;2024-03-23T18:09:38;-7.26;56.35
60242;SHT30;46103;52.076;113.488;2024-03-23T18:12:40;-7.33;56.83
60242;SHT30;46103;52.076;113.488;2024-03-23T18:15:41;-7.44;55.97
60242;SHT30;46103;52.076;113.488;2024-03-23T18:18:45;-7.52;55.60
60242;SHT30;46103;52.076;113.488;2024-03-23T18:21:51;-7.59;55.46
60242;SHT30;46103;52.076;113.488;2024-03-23T18:24:54;-7.64;56.10
60242;SHT30;46103;52.076;113.488;2024-03-23T18:27:55;-7.80;56.11
60242;SHT30;46103;52.076;113.488;2024-03-23T18:30:59;-7.74;56.20
60242;SHT30;46103;52.076;113.488;2024-03-23T18:34:01;-7.77;56.22
60242;SHT30;46103;52.076;113.488;2024-03-23T18:37:03;-7.77;56.53
60242;SHT30;46103;52.076;113.488;2024-03-23T18:40:07;-7.83;56.68
60242;SHT30;46103;52.076;113.488;2024-03-23T18:43:09;-7.88;57.02
60242;SHT30;46103;52.076;113.488;2024-03-23T18:46:12;-7.90;57.04
60242;SHT30;46103;52.076;113.488;2024-03-23T18:49:13;-7.91;57.06
60242;SHT30;46103;52.076;113.488;2024-03-23T18:52:16;-7.94;56.95
60242;SHT30;46103;52.076;113.488;2024-03-23T18:55:18;-7.98;56.99
60242;SHT30;46103;52.076;113.488;2024-03-23T18:58:21;-8.01;56.83
60242;SHT30;46103;52.076;113.488;2024-03-23T19:01:23;-8.05;56.69
60242;SHT30;46103;52.076;113.488;2024-03-23T19:04:26;-8.15;56.94
60242;SHT30;46103;52.076;113.488;2024-03-23T19:07:28;-8.21;56.96
60242;SHT30;46103;52.076;113.488;2024-03-23T19:10:32;-8.30;56.98
60242;SHT30;46103;52.076;113.488;2024-03-23T19:13:34;-8.29;57.28
60242;SHT30;46103;52.076;113.488;2024-03-23T19:16:37;-8.38;57.16
60242;SHT30;46103;52.076;113.488;2024-03-23T19:19:39;-8.40;57.45
60242;SHT30;46103;52.076;113.488;2024-03-23T19:22:42;-8.43;57.44
60242;SHT30;46103;52.076;113.488;2024-03-23T19:25:51;-8.46;57.42
60242;SHT30;46103;52.076;113.488;2024-03-23T19:28:54;-8.50;57.65
60242;SHT30;46103;52.076;113.488;2024-03-23T19:31:56;-8.58;57.88
60242;SHT30;46103;52.076;113.488;2024-03-23T19:34:59;-8.61;58.17
60242;SHT30;46103;52.076;113.488;2024-03-23T19:38:01;-8.63;58.33
60242;SHT30;46103;52.076;113.488;2024-03-23T19:41:05;-8.63;58.36